createdAt,value
2018-12-02T00:00:20.412Z,77.68
2018-12-02T00:01:20.449Z,77.83
2018-12-02T00:02:20.422Z,78.12
2018-12-02T00:03:20.263Z,78.01
2018-12-02T00:04:20.270Z,78.19
2018-12-02T00:05:20.443Z,78.02
2018-12-02T00:06:20.469Z,77.96
2018-12-02T00:07:20.243Z,78.2
2018-12-02T00:08:20.325Z,78.02
2018-12-02T00:09:20.760Z,77.83
2018-12-02T00:10:20.291Z,78.1
2018-12-02T00:11:20.564Z,78.19
2018-12-02T00:12:20.447Z,78.19
2018-12-02T00:13:20.292Z,77.91
2018-12-02T00:14:20.399Z,77.87
2018-12-02T00:15:20.303Z,78.16
2018-12-02T00:16:20.330Z,78.11
2018-12-02T00:17:20.279Z,78.23
2018-12-02T00:18:20.265Z,78.41
2018-12-02T00:19:20.498Z,78.4
2018-12-02T00:20:20.447Z,78.1
2018-12-02T00:21:20.415Z,78.05
2018-12-02T00:22:20.419Z,78.61
2018-12-02T00:23:20.394Z,78.46
2018-12-02T00:24:20.434Z,78.26
2018-12-02T00:25:20.299Z,78.63
2018-12-02T00:26:20.269Z,78.72
2018-12-02T00:27:20.360Z,78.84
2018-12-02T00:28:20.525Z,78.42
2018-12-02T00:29:20.481Z,78.51
2018-12-02T00:30:20.449Z,78.34
2018-12-02T00:31:20.195Z,78.73
2018-12-02T00:32:20.392Z,78.3
2018-12-02T00:33:20.248Z,77.89
2018-12-02T00:34:20.293Z,78.01
2018-12-02T00:35:20.207Z,77.99
2018-12-02T00:36:21.040Z,77.96
2018-12-02T00:37:20.215Z,78.13
2018-12-02T00:38:20.242Z,78.07
2018-12-02T00:39:20.393Z,78.17
2018-12-02T00:40:20.478Z,78.19
2018-12-02T00:41:20.449Z,78.47
2018-12-02T00:42:20.417Z,78.16
2018-12-02T00:43:20.266Z,77.99
2018-12-02T00:44:20.237Z,78.37
2018-12-02T00:45:20.494Z,78.28
2018-12-02T00:46:20.347Z,78.58
2018-12-02T00:47:20.214Z,78.46
2018-12-02T00:48:20.461Z,78.22
2018-12-02T00:49:20.433Z,78.22
2018-12-02T00:50:20.177Z,78.31
2018-12-02T00:51:20.405Z,78.49
2018-12-02T00:52:20.522Z,78.62
2018-12-02T00:53:20.596Z,78.42
2018-12-02T00:54:20.425Z,78.49
2018-12-02T00:55:20.336Z,78.52
2018-12-02T00:56:20.261Z,78.56
2018-12-02T00:57:20.165Z,78.75
2018-12-02T00:58:20.219Z,78.67
2018-12-02T00:59:20.489Z,78.66
2018-12-02T01:00:20.343Z,78.75
2018-12-02T01:01:20.166Z,78.81
2018-12-02T01:02:20.305Z,78.95
2018-12-02T01:03:20.456Z,78.76
2018-12-02T01:04:20.195Z,79.04
2018-12-02T01:05:20.198Z,78.75
2018-12-02T01:06:20.210Z,78.7
2018-12-02T01:07:20.188Z,78.94
2018-12-02T01:08:20.194Z,79.01
2018-12-02T01:09:20.178Z,78.63
2018-12-02T01:10:20.231Z,78.78
2018-12-02T01:11:20.552Z,78.64
2018-12-02T01:12:20.206Z,78.8
2018-12-02T01:13:20.186Z,78.73
2018-12-02T01:14:20.259Z,78.56
2018-12-02T01:15:20.249Z,78.5
2018-12-02T01:16:20.206Z,78.81
2018-12-02T01:17:20.427Z,78.51
2018-12-02T01:18:20.156Z,78.43
2018-12-02T01:19:20.173Z,78.78
2018-12-02T01:20:20.177Z,78.98
2018-12-02T01:21:20.182Z,79.02
2018-12-02T01:22:20.223Z,78.44
2018-12-02T01:23:20.174Z,78.79
2018-12-02T01:24:20.200Z,78.25
2018-12-02T01:25:20.479Z,78.76
2018-12-02T01:26:20.125Z,78.82
2018-12-02T01:27:20.191Z,78.2
2018-12-02T01:28:20.304Z,78.5
2018-12-02T01:29:20.194Z,78.43
2018-12-02T01:30:20.164Z,78.75
2018-12-02T01:31:20.436Z,78.17
2018-12-02T01:32:20.497Z,78.56
2018-12-02T01:33:20.186Z,78.47
2018-12-02T01:34:20.438Z,78.03
2018-12-02T01:35:20.254Z,78.37
2018-12-02T01:36:20.426Z,78.19
2018-12-02T01:37:20.254Z,77.97
2018-12-02T01:38:20.330Z,78.13
2018-12-02T01:39:20.339Z,78.28
2018-12-02T01:40:20.137Z,77.9
2018-12-02T01:41:20.293Z,77.99
2018-12-02T01:42:20.205Z,77.71
2018-12-02T01:43:20.336Z,78.01
2018-12-02T01:44:20.399Z,77.86
2018-12-02T01:45:20.202Z,78
2018-12-02T01:46:20.283Z,77.54
2018-12-02T01:47:20.289Z,77.73
2018-12-02T01:48:20.551Z,77.93
2018-12-02T01:49:20.199Z,77.38
2018-12-02T01:50:20.307Z,77.23
2018-12-02T01:51:20.186Z,77.56
2018-12-02T01:52:20.140Z,77.69
2018-12-02T01:53:20.565Z,77.27
2018-12-02T01:54:20.213Z,77.41
2018-12-02T01:55:20.142Z,77.45
2018-12-02T01:56:20.301Z,77.61
2018-12-02T01:57:20.284Z,77.48
2018-12-02T01:58:20.182Z,77.5
2018-12-02T01:59:20.119Z,77.61
2018-12-02T02:00:20.384Z,77.53
2018-12-02T02:01:20.499Z,77.66
2018-12-02T02:02:20.364Z,77.85
2018-12-02T02:03:20.347Z,77.46
2018-12-02T02:04:20.358Z,77.89
2018-12-02T02:05:20.214Z,77.71
2018-12-02T02:06:20.135Z,77.49
2018-12-02T02:07:20.130Z,77.6
2018-12-02T02:08:20.279Z,77.67
2018-12-02T02:09:20.113Z,77.59
2018-12-02T02:10:20.099Z,77.55
2018-12-02T02:11:20.156Z,77.77
2018-12-02T02:12:20.466Z,77.73
2018-12-02T02:13:20.165Z,78.05
2018-12-02T02:14:20.088Z,77.71
2018-12-02T02:15:20.105Z,77.8
2018-12-02T02:16:20.191Z,77.91
2018-12-02T02:17:20.281Z,77.87
2018-12-02T02:18:20.404Z,77.86
2018-12-02T02:19:20.212Z,77.89
2018-12-02T02:20:20.097Z,77.66
2018-12-02T02:21:20.059Z,78.05
2018-12-02T02:22:20.264Z,78.26
2018-12-02T02:23:20.203Z,77.92
2018-12-02T02:24:20.047Z,78.25
2018-12-02T02:25:20.070Z,78.22
2018-12-02T02:26:20.085Z,77.67
2018-12-02T02:27:20.129Z,78.05
2018-12-02T02:28:20.133Z,78.13
2018-12-02T02:29:20.045Z,78.19
2018-12-02T02:30:20.073Z,78.09
2018-12-02T02:31:20.280Z,78.24
2018-12-02T02:32:20.136Z,78.11
2018-12-02T02:33:20.084Z,78.26
2018-12-02T02:34:20.093Z,78.43
2018-12-02T02:35:20.057Z,78.33
2018-12-02T02:36:20.290Z,78.22
2018-12-02T02:37:20.083Z,78.41
2018-12-02T02:38:20.207Z,78.45
2018-12-02T02:39:20.237Z,78.48
2018-12-02T02:40:20.133Z,78.31
2018-12-02T02:41:20.175Z,78.47
2018-12-02T02:42:20.311Z,78.31
2018-12-02T02:43:20.058Z,78.49
2018-12-02T02:44:20.047Z,78.46
2018-12-02T02:45:20.236Z,78.62
2018-12-02T02:46:20.084Z,78.72
2018-12-02T02:47:20.071Z,78.69
2018-12-02T02:48:20.047Z,78.78
2018-12-02T02:49:20.104Z,78.8
2018-12-02T02:50:20.069Z,78.77
2018-12-02T02:51:20.067Z,78.94
2018-12-02T02:52:20.054Z,79
2018-12-02T02:53:20.040Z,79.01
2018-12-02T02:54:20.157Z,79
2018-12-02T02:55:20.034Z,79.09
2018-12-02T02:56:20.060Z,78.96
2018-12-02T02:57:20.014Z,79.06
2018-12-02T02:58:20.053Z,79.01
2018-12-02T02:59:20.048Z,79.06
2018-12-02T03:00:20.014Z,79.09
2018-12-02T03:01:20.029Z,79.19
2018-12-02T03:02:20.119Z,79.2
2018-12-02T03:03:20.053Z,79.19
2018-12-02T03:04:20.855Z,79.18
2018-12-02T03:05:20.315Z,79.32
2018-12-02T03:06:20.098Z,79.2
2018-12-02T03:07:20.148Z,79.34
2018-12-02T03:08:19.998Z,79.35
2018-12-02T03:09:20.034Z,79.39
2018-12-02T03:10:20.032Z,79.26
2018-12-02T03:11:20.012Z,79.3
2018-12-02T03:12:20.580Z,79.38
2018-12-02T03:13:20.033Z,79.45
2018-12-02T03:14:20.273Z,79.38
2018-12-02T03:15:20.646Z,79.41
2018-12-02T03:16:20.529Z,79.37
2018-12-02T03:17:20.126Z,79.26
2018-12-02T03:18:20.159Z,79.1
2018-12-02T03:19:20.070Z,79.36
2018-12-02T03:20:20.040Z,79.2
2018-12-02T03:21:20.049Z,79.13
2018-12-02T03:22:20.150Z,78.99
2018-12-02T03:23:20.288Z,79.15
2018-12-02T03:24:20.354Z,79.27
2018-12-02T03:25:20.068Z,79.33
2018-12-02T03:26:20.099Z,79.28
2018-12-02T03:27:20.190Z,79.38
2018-12-02T03:28:20.121Z,79.41
2018-12-02T03:29:20.062Z,79.39
2018-12-02T03:30:20.137Z,79.4
2018-12-02T03:31:20.122Z,79.49
2018-12-02T03:32:20.017Z,79.53
2018-12-02T03:33:20.221Z,79.38
2018-12-02T03:34:20.470Z,79.47
2018-12-02T03:35:20.048Z,79.6
2018-12-02T03:36:20.429Z,79.43
2018-12-02T03:37:19.981Z,79.45
2018-12-02T03:38:20.003Z,79.44
2018-12-02T03:39:20.375Z,79.47
2018-12-02T03:40:20.014Z,79.59
2018-12-02T03:41:20.341Z,79.5
2018-12-02T03:42:20.042Z,79.51
2018-12-02T03:43:20.004Z,79.46
2018-12-02T03:44:20.271Z,79.49
2018-12-02T03:45:20.184Z,79.56
2018-12-02T03:46:20.042Z,79.54
2018-12-02T03:47:20.145Z,79.63
2018-12-02T03:48:20.077Z,79.85
2018-12-02T03:49:20.814Z,79.67
2018-12-02T03:50:20.049Z,79.58
2018-12-02T03:51:20.283Z,79.52
2018-12-02T03:52:20.362Z,79.39
2018-12-02T03:53:20.144Z,79.46
2018-12-02T03:54:20.249Z,79.77
2018-12-02T03:55:20.373Z,79.54
2018-12-02T03:56:19.966Z,79.56
2018-12-02T03:57:20.128Z,79.6
2018-12-02T03:58:20.176Z,79.64
2018-12-02T03:59:20.024Z,79.36
2018-12-02T04:00:20.031Z,79.39
2018-12-02T04:01:20.223Z,79.42
2018-12-02T04:02:20.027Z,79.63
2018-12-02T04:03:20.084Z,79.45
2018-12-02T04:04:20.083Z,79.39
2018-12-02T04:05:19.988Z,79.62
2018-12-02T04:06:19.983Z,79.7
2018-12-02T04:07:20.790Z,79.88
2018-12-02T04:08:19.984Z,79.92
2018-12-02T04:09:20.034Z,79.77
2018-12-02T04:10:19.979Z,80.24
2018-12-02T04:11:20.116Z,80.56
2018-12-02T04:12:20.362Z,81.02
2018-12-02T04:13:19.992Z,81.21
2018-12-02T04:14:20.008Z,82.31
2018-12-02T04:15:20.849Z,82.35
2018-12-02T04:16:20.207Z,82.36
2018-12-02T04:17:20.712Z,83.2
2018-12-02T04:18:20.003Z,83.48
2018-12-02T04:19:20.013Z,83.45
2018-12-02T04:20:20.007Z,83.47
2018-12-02T04:21:20.364Z,83.74
2018-12-02T04:22:20.047Z,84.16
2018-12-02T04:23:19.935Z,83.94
2018-12-02T04:24:20.125Z,84.28
2018-12-02T04:25:19.985Z,84.13
2018-12-02T04:26:19.931Z,84.1
2018-12-02T04:27:19.909Z,84.97
2018-12-02T04:28:19.923Z,85.2
2018-12-02T04:29:19.979Z,85.23
2018-12-02T04:30:19.963Z,85.12
2018-12-02T04:31:19.933Z,84.99
2018-12-02T04:32:19.940Z,85.31
2018-12-02T04:33:20.037Z,85.17
2018-12-02T04:34:20.123Z,85.04
2018-12-02T04:35:19.952Z,86.04
2018-12-02T04:36:20.208Z,85.86
2018-12-02T04:37:20.163Z,86.07
2018-12-02T04:38:20.067Z,86.33
2018-12-02T04:39:19.915Z,85.86
2018-12-02T04:40:19.917Z,85.87
2018-12-02T04:41:19.958Z,86.37
2018-12-02T04:42:20.202Z,86.1
2018-12-02T04:43:19.975Z,86.8
2018-12-02T04:44:19.980Z,86.7
2018-12-02T04:45:20.086Z,86.48
2018-12-02T04:46:20.199Z,86.71
2018-12-02T04:47:19.948Z,86.8
2018-12-02T04:48:19.932Z,87.19
2018-12-02T04:49:19.902Z,86.87
2018-12-02T04:50:20.136Z,86.83
2018-12-02T04:51:20.131Z,86.59
2018-12-02T04:52:20.196Z,87.09
2018-12-02T04:53:20.015Z,87.48
2018-12-02T04:54:20.019Z,87.63
2018-12-02T04:55:20.230Z,87.38
2018-12-02T04:56:20.116Z,87.71
2018-12-02T04:57:19.900Z,88.06
2018-12-02T04:58:19.925Z,87.53
2018-12-02T04:59:20.039Z,87.81
2018-12-02T05:00:20.065Z,87.33
2018-12-02T05:01:19.879Z,87.33
2018-12-02T05:02:20.012Z,87.49
2018-12-02T05:03:19.984Z,87.64
2018-12-02T05:04:20.062Z,87.42
2018-12-02T05:05:19.932Z,87.33
2018-12-02T05:06:19.913Z,88.42
2018-12-02T05:07:19.936Z,87.71
2018-12-02T05:08:19.992Z,87.91
2018-12-02T05:09:20.269Z,88.15
2018-12-02T05:10:20.006Z,89
2018-12-02T05:11:20.061Z,88.54
2018-12-02T05:12:20.071Z,88.72
2018-12-02T05:13:19.878Z,89.15
2018-12-02T05:14:19.902Z,88.87
2018-12-02T05:15:19.885Z,88.25
2018-12-02T05:16:20.050Z,88.41
2018-12-02T05:17:20.001Z,88.38
2018-12-02T05:18:20.057Z,88.46
2018-12-02T05:19:19.968Z,88.38
2018-12-02T05:20:19.982Z,88.65
2018-12-02T05:21:20.066Z,88.87
2018-12-02T05:22:19.909Z,88.98
2018-12-02T05:23:19.921Z,88.41
2018-12-02T05:24:19.988Z,88.78
2018-12-02T05:25:20.161Z,88.45
2018-12-02T05:26:19.907Z,88.63
2018-12-02T05:27:20.042Z,89.1
2018-12-02T05:28:20.194Z,88.91
2018-12-02T05:29:19.945Z,89.33
2018-12-02T05:30:19.945Z,89.2
2018-12-02T05:31:19.952Z,88.95
2018-12-02T05:32:20.071Z,89.11
2018-12-02T05:33:20.722Z,88.92
2018-12-02T05:34:19.927Z,89.02
2018-12-02T05:35:19.926Z,88.81
2018-12-02T05:36:19.993Z,89.03
2018-12-02T05:37:20.009Z,89.34
2018-12-02T05:38:20.134Z,89.43
2018-12-02T05:39:20.227Z,89.31
2018-12-02T05:40:19.946Z,89.34
2018-12-02T05:41:19.899Z,89.48
2018-12-02T05:42:19.805Z,89.62
2018-12-02T05:43:19.989Z,89.74
2018-12-02T05:44:19.921Z,89.88
2018-12-02T05:45:20.066Z,89.84
2018-12-02T05:46:19.931Z,90.34
2018-12-02T05:47:20.052Z,90.47
2018-12-02T05:48:20.029Z,90.09
2018-12-02T05:49:20.949Z,89.79
2018-12-02T05:50:19.844Z,90.14
2018-12-02T05:51:19.821Z,90.03
2018-12-02T05:52:20.016Z,90.16
2018-12-02T05:53:20.003Z,90.18
2018-12-02T05:54:19.793Z,90.3
2018-12-02T05:55:19.952Z,90.21
2018-12-02T05:56:19.785Z,90.42
2018-12-02T05:57:19.823Z,90.5
2018-12-02T05:58:19.869Z,90.36
2018-12-02T05:59:19.822Z,90.79
2018-12-02T06:00:19.897Z,90.56
2018-12-02T06:01:19.785Z,90.72
2018-12-02T06:02:19.792Z,90.71
2018-12-02T06:03:19.801Z,90.52
2018-12-02T06:04:19.783Z,90.58
2018-12-02T06:05:19.837Z,90.76
2018-12-02T06:06:19.924Z,90.79
2018-12-02T06:07:19.829Z,90.57
2018-12-02T06:08:19.778Z,90.65
2018-12-02T06:09:19.801Z,90.61
2018-12-02T06:10:19.826Z,90.74
2018-12-02T06:11:19.807Z,90.9
2018-12-02T06:12:20.069Z,90.64
2018-12-02T06:13:19.926Z,90.81
2018-12-02T06:14:19.952Z,91.11
2018-12-02T06:15:19.910Z,91.03
2018-12-02T06:16:19.914Z,90.74
2018-12-02T06:17:19.815Z,90.52
2018-12-02T06:18:19.835Z,91.28
2018-12-02T06:19:19.793Z,91.36
2018-12-02T06:20:19.996Z,91.3
2018-12-02T06:21:19.806Z,91.1
2018-12-02T06:22:19.781Z,91.47
2018-12-02T06:23:19.992Z,91.67
2018-12-02T06:24:19.972Z,91.54
2018-12-02T06:25:19.974Z,91.05
2018-12-02T06:26:19.782Z,91.34
2018-12-02T06:27:19.791Z,91.49
2018-12-02T06:28:20.416Z,91.5
2018-12-02T06:29:20.010Z,91.6
2018-12-02T06:30:19.830Z,91.66
2018-12-02T06:31:19.895Z,91.55
2018-12-02T06:32:19.946Z,92.1
2018-12-02T06:33:19.940Z,92.37
2018-12-02T06:34:19.953Z,92.01
2018-12-02T06:35:20.074Z,92.14
2018-12-02T06:36:20.010Z,92.53
2018-12-02T06:37:19.968Z,92.05
2018-12-02T06:38:19.789Z,92.12
2018-12-02T06:39:19.768Z,92.13
2018-12-02T06:40:19.807Z,92.46
2018-12-02T06:41:19.791Z,91.97
2018-12-02T06:42:19.780Z,92.18
2018-12-02T06:43:19.820Z,92.27
2018-12-02T06:44:19.793Z,92.06
2018-12-02T06:45:19.957Z,92.37
2018-12-02T06:46:19.930Z,92.13
2018-12-02T06:47:20.280Z,91.88
2018-12-02T06:48:19.821Z,91.96
2018-12-02T06:49:19.819Z,92.24
2018-12-02T06:50:20.062Z,92.48
2018-12-02T06:51:19.990Z,92.25
2018-12-02T06:52:20.028Z,92.31
2018-12-02T06:53:19.762Z,92.25
2018-12-02T06:54:19.765Z,92.5
2018-12-02T06:55:19.812Z,92.08
2018-12-02T06:56:19.908Z,92.48
2018-12-02T06:57:20.006Z,92.2
2018-12-02T06:58:20.256Z,92.91
2018-12-02T06:59:20.051Z,92.64
2018-12-02T07:00:19.960Z,92.75
2018-12-02T07:01:19.750Z,93.19
2018-12-02T07:02:19.730Z,93.09
2018-12-02T07:03:19.910Z,93.56
2018-12-02T07:04:19.949Z,92.85
2018-12-02T07:05:19.991Z,93.25
2018-12-02T07:06:19.797Z,93.34
2018-12-02T07:07:19.784Z,93.36
2018-12-02T07:08:19.790Z,93.4
2018-12-02T07:09:19.838Z,93.75
2018-12-02T07:10:19.721Z,93.41
2018-12-02T07:11:19.914Z,93.39
2018-12-02T07:12:19.722Z,93.37
2018-12-02T07:13:19.743Z,93.95
2018-12-02T07:14:19.879Z,93.66
2018-12-02T07:15:19.960Z,93.82
2018-12-02T07:16:19.717Z,93.88
2018-12-02T07:17:19.956Z,93.64
2018-12-02T07:18:19.954Z,93.9
2018-12-02T07:19:19.739Z,93.87
2018-12-02T07:20:19.688Z,94.23
2018-12-02T07:21:19.725Z,94.44
2018-12-02T07:22:19.730Z,94.18
2018-12-02T07:23:19.918Z,94.07
2018-12-02T07:24:19.995Z,94.35
2018-12-02T07:25:19.726Z,94.21
2018-12-02T07:26:19.871Z,94.24
2018-12-02T07:27:20.011Z,94.27
2018-12-02T07:28:19.774Z,94.46
2018-12-02T07:29:19.943Z,94.48
2018-12-02T07:30:24.867Z,94.1
2018-12-02T07:31:19.842Z,94.14
2018-12-02T07:32:19.958Z,94.26
2018-12-02T07:33:19.880Z,94.47
2018-12-02T07:34:19.743Z,94.66
2018-12-02T07:35:19.717Z,94.39
2018-12-02T07:36:19.681Z,94.52
2018-12-02T07:37:19.686Z,94.68
2018-12-02T07:38:19.699Z,94.38
2018-12-02T07:39:20.014Z,94.55
2018-12-02T07:40:19.687Z,94.88
2018-12-02T07:41:19.902Z,94.98
2018-12-02T07:42:19.742Z,94.65
2018-12-02T07:43:19.709Z,94.86
2018-12-02T07:44:19.701Z,95.06
2018-12-02T07:45:19.702Z,94.98
2018-12-02T07:46:19.671Z,94.77
2018-12-02T07:47:19.956Z,94.81
2018-12-02T07:48:19.654Z,94.72
2018-12-02T07:49:19.960Z,94.68
2018-12-02T07:50:19.681Z,94.72
2018-12-02T07:51:19.683Z,94.68
2018-12-02T07:52:19.756Z,94.8
2018-12-02T07:53:19.706Z,95.1
2018-12-02T07:54:19.960Z,95
2018-12-02T07:55:19.657Z,94.87
2018-12-02T07:56:19.716Z,95.02
2018-12-02T07:57:19.708Z,95.06
2018-12-02T07:58:19.858Z,95.64
2018-12-02T07:59:19.732Z,95.02
2018-12-02T08:00:19.665Z,95.76
2018-12-02T08:01:20.026Z,95.52
2018-12-02T08:02:19.871Z,95.61
2018-12-02T08:03:20.183Z,95.52
2018-12-02T08:04:19.933Z,95.55
2018-12-02T08:05:19.916Z,95.65
2018-12-02T08:06:19.857Z,95.69
2018-12-02T08:07:19.684Z,95.8
2018-12-02T08:08:19.766Z,96.16
2018-12-02T08:09:19.819Z,96.06
2018-12-02T08:10:19.980Z,96.34
2018-12-02T08:11:19.649Z,96.13
2018-12-02T08:12:19.843Z,96.05
2018-12-02T08:13:19.876Z,96.17
2018-12-02T08:14:19.911Z,96.67
2018-12-02T08:15:19.860Z,96.2
2018-12-02T08:16:19.982Z,96.65
2018-12-02T08:17:19.906Z,96.42
2018-12-02T08:18:20.058Z,96.13
2018-12-02T08:19:19.972Z,96.84
2018-12-02T08:20:19.624Z,96.83
2018-12-02T08:21:19.844Z,96.58
2018-12-02T08:22:19.619Z,96.9
2018-12-02T08:23:19.609Z,97.39
2018-12-02T08:24:19.709Z,96.99
2018-12-02T08:25:19.880Z,96.78
2018-12-02T08:26:19.661Z,96.67
2018-12-02T08:27:19.642Z,97.08
2018-12-02T08:28:19.951Z,96.95
2018-12-02T08:29:20.093Z,96.97
2018-12-02T08:30:19.839Z,96.98
2018-12-02T08:31:19.720Z,97.11
2018-12-02T08:32:19.585Z,96.6
2018-12-02T08:33:19.600Z,96.95
2018-12-02T08:34:19.954Z,97.65
2018-12-02T08:35:19.859Z,97.14
2018-12-02T08:36:19.879Z,97.38
2018-12-02T08:37:19.610Z,97.57
2018-12-02T08:38:19.602Z,97.3
2018-12-02T08:39:19.847Z,97.42
2018-12-02T08:40:20.694Z,97.09
2018-12-02T08:41:19.693Z,97.18
2018-12-02T08:42:19.771Z,97.23
2018-12-02T08:43:19.780Z,96.96
2018-12-02T08:44:19.595Z,97.35
2018-12-02T08:45:19.630Z,97.35
2018-12-02T08:46:19.755Z,97.26
2018-12-02T08:47:19.883Z,97.05
2018-12-02T08:48:19.585Z,97.15
2018-12-02T08:49:19.739Z,97.36
2018-12-02T08:50:19.771Z,97.19
2018-12-02T08:51:19.603Z,96.98
2018-12-02T08:52:19.658Z,97.35
2018-12-02T08:53:19.875Z,97.02
2018-12-02T08:54:19.613Z,97.01
2018-12-02T08:55:19.656Z,97.22
2018-12-02T08:56:19.735Z,96.92
2018-12-02T08:57:19.621Z,97.28
2018-12-02T08:58:19.614Z,97.27
2018-12-02T08:59:19.745Z,97.55
2018-12-02T09:00:19.731Z,97.18
2018-12-02T09:01:19.737Z,97.36
2018-12-02T09:02:19.748Z,97.4
2018-12-02T09:03:19.684Z,97.32
2018-12-02T09:04:19.618Z,97.14
2018-12-02T09:05:19.715Z,97.34
2018-12-02T09:06:19.683Z,97.17
2018-12-02T09:07:19.617Z,97.4
2018-12-02T09:08:19.784Z,97.43
2018-12-02T09:09:19.758Z,97.44
2018-12-02T09:10:19.616Z,97.36
2018-12-02T09:11:19.646Z,97.19
2018-12-02T09:12:19.733Z,97.11
2018-12-02T09:13:19.545Z,97.4
2018-12-02T09:14:19.673Z,97.66
2018-12-02T09:15:19.909Z,97.57
2018-12-02T09:16:19.903Z,97.04
2018-12-02T09:17:19.596Z,96.93
2018-12-02T09:18:19.546Z,97.19
2018-12-02T09:19:19.658Z,96.74
2018-12-02T09:20:19.595Z,96.95
2018-12-02T09:21:19.563Z,96.96
2018-12-02T09:22:19.596Z,96.83
2018-12-02T09:23:19.578Z,96.73
2018-12-02T09:24:19.544Z,96.84
2018-12-02T09:25:19.553Z,96.9
2018-12-02T09:26:19.573Z,96.79
2018-12-02T09:27:19.576Z,96.71
2018-12-02T09:28:19.806Z,96.93
2018-12-02T09:29:19.573Z,96.83
2018-12-02T09:30:19.599Z,96.85
2018-12-02T09:31:19.659Z,96.91
2018-12-02T09:32:19.565Z,96.95
2018-12-02T09:33:19.545Z,96.95
2018-12-02T09:34:19.553Z,96.87
2018-12-02T09:35:19.588Z,96.51
2018-12-02T09:36:20.076Z,96.64
2018-12-02T09:37:20.765Z,96.69
2018-12-02T09:38:19.509Z,96.72
2018-12-02T09:39:19.687Z,96.54
2018-12-02T09:40:19.600Z,96.58
2018-12-02T09:41:19.731Z,96.3
2018-12-02T09:42:19.640Z,96.24
2018-12-02T09:43:20.054Z,96.25
2018-12-02T09:44:19.579Z,96.32
2018-12-02T09:45:19.581Z,96.46
2018-12-02T09:46:19.546Z,96.35
2018-12-02T09:47:19.661Z,96.14
2018-12-02T09:48:19.654Z,96.26
2018-12-02T09:49:19.716Z,96.46
2018-12-02T09:50:20.643Z,96.42
2018-12-02T09:51:19.755Z,96.27
2018-12-02T09:52:19.887Z,96.33
2018-12-02T09:53:19.749Z,96.63
2018-12-02T09:54:23.299Z,96.52
2018-12-02T09:55:19.563Z,96.13
2018-12-02T09:56:19.529Z,96.32
2018-12-02T09:57:19.641Z,96.39
2018-12-02T09:58:19.924Z,96.21
2018-12-02T09:59:19.526Z,96.25
2018-12-02T10:00:19.517Z,96.24
2018-12-02T10:01:19.642Z,96.41
2018-12-02T10:02:19.634Z,96.46
2018-12-02T10:03:19.745Z,96.4
2018-12-02T10:04:19.735Z,96.52
2018-12-02T10:05:19.529Z,96.36
2018-12-02T10:06:19.639Z,96.13
2018-12-02T10:07:19.712Z,96.18
2018-12-02T10:08:19.722Z,96.43
2018-12-02T10:09:22.098Z,96.53
2018-12-02T10:10:22.308Z,96.61
2018-12-02T10:11:19.726Z,96.63
2018-12-02T10:12:19.677Z,96.56
2018-12-02T10:13:19.707Z,96.34
2018-12-02T10:14:19.653Z,96.59
2018-12-02T10:15:19.745Z,96.5
2018-12-02T10:16:19.637Z,96.48
2018-12-02T10:17:19.641Z,96.49
2018-12-02T10:18:19.570Z,96.39
2018-12-02T10:19:19.789Z,96.65
2018-12-02T10:20:20.761Z,96.5
2018-12-02T10:21:19.579Z,96.57
2018-12-02T10:22:19.481Z,96.48
2018-12-02T10:23:19.591Z,96.67
2018-12-02T10:24:19.562Z,96.67
2018-12-02T10:25:19.562Z,96.7
2018-12-02T10:26:19.583Z,96.7
2018-12-02T10:27:19.572Z,96.55
2018-12-02T10:28:19.483Z,96.76
2018-12-02T10:29:19.591Z,96.62
2018-12-02T10:30:19.502Z,96.63
2018-12-02T10:31:19.712Z,96.71
2018-12-02T10:32:19.578Z,97
2018-12-02T10:33:19.517Z,96.83
2018-12-02T10:34:19.530Z,96.86
2018-12-02T10:35:19.558Z,96.79
2018-12-02T10:36:19.616Z,96.77
2018-12-02T10:37:19.751Z,96.67
2018-12-02T10:38:19.612Z,97.02
2018-12-02T10:39:19.523Z,96.97
2018-12-02T10:40:19.504Z,97.05
2018-12-02T10:41:19.545Z,97
2018-12-02T10:42:19.876Z,96.92
2018-12-02T10:43:19.862Z,96.94
2018-12-02T10:44:19.513Z,96.87
2018-12-02T10:45:19.438Z,96.9
2018-12-02T10:46:19.643Z,96.91
2018-12-02T10:47:19.554Z,97.03
2018-12-02T10:48:19.594Z,96.94
2018-12-02T10:49:19.593Z,96.96
2018-12-02T10:50:19.470Z,96.77
2018-12-02T10:51:19.657Z,96.83
2018-12-02T10:52:19.615Z,96.47
2018-12-02T10:53:19.671Z,96.57
2018-12-02T10:54:19.487Z,96.82
2018-12-02T10:55:19.534Z,96.84
2018-12-02T10:56:19.426Z,96.71
2018-12-02T10:57:19.428Z,96.82
2018-12-02T10:58:19.487Z,96.61
2018-12-02T10:59:19.509Z,96.42
2018-12-02T11:00:19.473Z,96.85
2018-12-02T11:01:22.310Z,96.94
2018-12-02T11:02:24.973Z,96.82
2018-12-02T11:03:21.493Z,96.96
2018-12-02T11:04:21.813Z,96.88
2018-12-02T11:05:24.664Z,97
2018-12-02T11:06:23.832Z,96.76
2018-12-02T11:07:20.761Z,97.01
2018-12-02T11:08:21.766Z,96.87
2018-12-02T11:09:25.103Z,97.14
2018-12-02T11:10:22.825Z,96.94
2018-12-02T11:11:23.801Z,96.81
2018-12-02T11:12:34.025Z,96.96
2018-12-02T11:13:23.490Z,96.84
2018-12-02T11:14:26.368Z,96.86
2018-12-02T11:15:26.565Z,96.97
2018-12-02T11:16:22.152Z,97.04
2018-12-02T11:17:20.669Z,97
2018-12-02T11:18:21.442Z,96.53
2018-12-02T11:19:21.267Z,96.87
2018-12-02T11:20:30.477Z,96.96
2018-12-02T11:21:22.907Z,96.97
2018-12-02T11:22:20.193Z,97.02
2018-12-02T11:23:22.589Z,96.78
2018-12-02T11:24:25.537Z,97.04
2018-12-02T11:25:21.625Z,97
2018-12-02T11:26:22.519Z,96.91
2018-12-02T11:27:24.470Z,97.01
2018-12-02T11:28:19.296Z,96.97
2018-12-02T11:29:19.600Z,96.9
2018-12-02T11:30:19.384Z,97.08
2018-12-02T11:31:19.617Z,97.2
2018-12-02T11:32:19.380Z,97.08
2018-12-02T11:33:19.558Z,97.1
2018-12-02T11:34:19.443Z,96.91
2018-12-02T11:35:19.421Z,97.04
2018-12-02T11:36:19.474Z,96.99
2018-12-02T11:37:19.516Z,97.04
2018-12-02T11:38:19.770Z,97.06
2018-12-02T11:39:19.453Z,97.18
2018-12-02T11:40:19.576Z,97.1
2018-12-02T11:41:19.444Z,97.08
2018-12-02T11:42:19.629Z,96.84
2018-12-02T11:43:19.534Z,96.97
2018-12-02T11:44:19.567Z,96.59
2018-12-02T11:45:19.453Z,96.9
2018-12-02T11:46:19.386Z,96.8
2018-12-02T11:47:19.747Z,96.81
2018-12-02T11:48:19.919Z,96.58
2018-12-02T11:49:19.548Z,96.61
2018-12-02T11:50:23.602Z,96.71
2018-12-02T11:51:21.766Z,97.02
2018-12-02T11:52:19.422Z,96.54
2018-12-02T11:53:19.565Z,96.53
2018-12-02T11:54:19.386Z,96.68
2018-12-02T11:55:19.574Z,96.58
2018-12-02T11:56:19.477Z,96.67
2018-12-02T11:57:19.490Z,96.51
2018-12-02T11:58:19.442Z,96.56
2018-12-02T11:59:19.335Z,96.58
2018-12-02T12:00:19.483Z,96.87
2018-12-02T12:01:19.547Z,96.59
2018-12-02T12:02:19.466Z,96.37
2018-12-02T12:03:19.429Z,96.67
2018-12-02T12:04:19.407Z,96.37
2018-12-02T12:05:19.523Z,96.72
2018-12-02T12:06:19.595Z,96.21
2018-12-02T12:07:19.482Z,96.45
2018-12-02T12:08:19.395Z,96.35
2018-12-02T12:09:19.366Z,96.46
2018-12-02T12:10:19.553Z,96.26
2018-12-02T12:11:19.497Z,96.29
2018-12-02T12:12:19.606Z,96.48
2018-12-02T12:13:19.378Z,96.12
2018-12-02T12:14:19.376Z,96.44
2018-12-02T12:15:19.570Z,96.48
2018-12-02T12:16:19.372Z,96.37
2018-12-02T12:17:19.512Z,96.41
2018-12-02T12:18:19.523Z,96.12
2018-12-02T12:19:19.370Z,96.34
2018-12-02T12:20:22.900Z,95.78
2018-12-02T12:21:20.557Z,96.09
2018-12-02T12:22:19.392Z,96
2018-12-02T12:23:20.154Z,96.11
2018-12-02T12:24:19.499Z,95.71
2018-12-02T12:25:19.462Z,95.97
2018-12-02T12:26:19.339Z,95.73
2018-12-02T12:27:19.428Z,96.02
2018-12-02T12:28:19.337Z,95.94
2018-12-02T12:29:19.482Z,95.88
2018-12-02T12:30:19.450Z,96.04
2018-12-02T12:31:19.733Z,96.02
2018-12-02T12:32:19.298Z,96.09
2018-12-02T12:33:19.311Z,96.15
2018-12-02T12:34:19.388Z,96.14
2018-12-02T12:35:19.379Z,96.15
2018-12-02T12:36:19.332Z,96
2018-12-02T12:37:19.342Z,96.11
2018-12-02T12:38:19.341Z,95.92
2018-12-02T12:39:20.321Z,95.79
2018-12-02T12:40:19.371Z,95.8
2018-12-02T12:41:19.390Z,95.85
2018-12-02T12:42:19.606Z,95.78
2018-12-02T12:43:19.372Z,95.9
2018-12-02T12:44:19.342Z,95.88
2018-12-02T12:45:19.364Z,95.98
2018-12-02T12:46:19.329Z,96.02
2018-12-02T12:47:19.364Z,96.1
2018-12-02T12:48:19.350Z,96.03
2018-12-02T12:49:20.274Z,96.29
2018-12-02T12:50:19.302Z,96.01
2018-12-02T12:51:19.361Z,96.17
2018-12-02T12:52:19.294Z,95.88
2018-12-02T12:53:19.584Z,95.84
2018-12-02T12:54:19.310Z,95.83
2018-12-02T12:55:19.322Z,95.75
2018-12-02T12:56:19.528Z,95.65